createdAt,value
2022-12-08T00:01:20.077Z,1.50
2022-12-08T00:03:47.285Z,1.50
2022-12-08T00:06:22.660Z,1.50
2022-12-08T00:08:51.330Z,1.50
2022-12-08T00:11:18.884Z,1.50
2022-12-08T00:13:46.238Z,1.50
2022-12-08T00:16:13.011Z,1.50
2022-12-08T00:18:39.782Z,1.50
2022-12-08T00:21:06.624Z,1.50
2022-12-08T00:23:33.347Z,1.50
2022-12-08T00:26:03.888Z,1.50
2022-12-08T00:28:31.851Z,1.50
2022-12-08T00:30:58.849Z,1.50
2022-12-08T00:33:27.301Z,1.50
2022-12-08T00:35:54.058Z,1.50
2022-12-08T00:38:20.737Z,1.50
2022-12-08T00:40:47.827Z,1.50
2022-12-08T00:43:15.871Z,1.40
2022-12-08T00:45:43.341Z,1.40
2022-12-08T00:48:10.132Z,1.40
2022-12-08T00:50:36.828Z,1.40
2022-12-08T00:53:03.580Z,1.50
2022-12-08T00:55:30.273Z,1.50
2022-12-08T00:57:56.943Z,1.50
2022-12-08T01:00:25.882Z,1.50
2022-12-08T01:02:52.637Z,1.50
2022-12-08T01:05:19.349Z,1.40
2022-12-08T01:07:46.088Z,1.40
2022-12-08T01:10:12.832Z,1.40
2022-12-08T01:12:39.568Z,1.40
2022-12-08T01:15:07.393Z,1.40
2022-12-08T01:17:37.192Z,1.40
2022-12-08T01:20:05.273Z,1.40
2022-12-08T01:22:33.636Z,1.40
2022-12-08T01:25:00.344Z,1.50
2022-12-08T01:27:27.108Z,1.40
2022-12-08T01:29:53.809Z,1.40
2022-12-08T01:32:20.530Z,1.40
2022-12-08T01:34:48.627Z,1.50
2022-12-08T01:37:15.324Z,1.40
2022-12-08T01:39:42.137Z,1.50
2022-12-08T01:42:19.449Z,1.40
2022-12-08T01:45:06.052Z,1.40
2022-12-08T01:47:39.909Z,1.40
2022-12-08T01:50:11.280Z,1.30
2022-12-08T01:52:40.735Z,1.40
2022-12-08T01:55:11.815Z,1.30
2022-12-08T01:57:43.209Z,1.30
2022-12-08T02:00:12.091Z,1.30
2022-12-08T02:02:46.391Z,1.30
2022-12-08T02:05:16.089Z,1.40
2022-12-08T02:07:43.903Z,1.40
2022-12-08T02:10:13.796Z,1.40
2022-12-08T02:12:40.514Z,1.50
2022-12-08T02:15:08.359Z,1.50
2022-12-08T02:17:46.632Z,1.50
2022-12-08T02:20:38.744Z,1.50
2022-12-08T02:23:11.839Z,1.50
2022-12-08T02:25:49.808Z,1.50
2022-12-08T02:28:43.424Z,1.60
2022-12-08T02:31:23.518Z,1.60
2022-12-08T02:34:10.069Z,1.50
2022-12-08T02:36:42.553Z,1.50
2022-12-08T02:39:15.440Z,1.50
2022-12-08T02:41:49.100Z,1.50
2022-12-08T02:44:22.256Z,1.50
2022-12-08T02:46:55.424Z,1.50
2022-12-08T02:49:28.199Z,1.60
2022-12-08T02:52:04.811Z,1.60
2022-12-08T02:54:32.173Z,1.50
2022-12-08T02:57:20.894Z,1.60
2022-12-08T03:00:07.416Z,1.60
2022-12-08T03:02:45.586Z,1.50
2022-12-08T03:05:24.534Z,1.50
2022-12-08T03:08:00.434Z,1.60
2022-12-08T03:10:32.710Z,1.60
2022-12-08T03:13:04.557Z,1.50
2022-12-08T03:15:32.644Z,1.60
2022-12-08T03:17:59.616Z,1.50
2022-12-08T03:20:30.622Z,1.50
2022-12-08T03:23:00.230Z,1.50
2022-12-08T03:25:30.337Z,1.60
2022-12-08T03:27:57.488Z,1.60
2022-12-08T03:30:24.189Z,1.50
2022-12-08T03:32:54.844Z,1.50
2022-12-08T03:35:25.757Z,1.50
2022-12-08T03:38:02.320Z,1.50
2022-12-08T03:40:29.048Z,1.40
2022-12-08T03:42:55.984Z,1.40
2022-12-08T03:45:22.827Z,1.40
2022-12-08T03:47:49.523Z,1.40
2022-12-08T03:50:16.204Z,1.40
2022-12-08T03:52:42.902Z,1.40
2022-12-08T03:55:11.160Z,1.40
2022-12-08T03:57:38.018Z,1.40
2022-12-08T04:00:06.807Z,1.40
2022-12-08T04:02:33.661Z,1.40
2022-12-08T04:05:00.449Z,1.40
2022-12-08T04:07:27.165Z,1.40
2022-12-08T04:09:53.890Z,1.40
2022-12-08T04:12:22.005Z,1.50
2022-12-08T04:14:48.703Z,1.40
2022-12-08T04:17:15.443Z,1.40
2022-12-08T04:19:42.141Z,1.50
2022-12-08T04:22:08.853Z,1.40
2022-12-08T04:24:35.588Z,1.40
2022-12-08T04:27:02.273Z,1.40
2022-12-08T04:29:30.378Z,1.40
2022-12-08T04:31:57.156Z,1.40
2022-12-08T04:34:24.081Z,1.40
2022-12-08T04:36:50.795Z,1.30
2022-12-08T04:39:17.509Z,1.30
2022-12-08T04:41:44.222Z,1.30
2022-12-08T04:44:10.936Z,1.30
2022-12-08T04:46:43.125Z,1.30
2022-12-08T04:49:10.281Z,1.30
2022-12-08T04:51:36.988Z,1.20
2022-12-08T04:54:03.794Z,1.20
2022-12-08T04:56:30.498Z,1.30
2022-12-08T04:58:57.199Z,1.20
2022-12-08T05:01:23.894Z,1.10
2022-12-08T05:03:52.039Z,1.20
2022-12-08T05:06:18.748Z,1.10
2022-12-08T05:08:45.465Z,1.10
2022-12-08T05:11:14.047Z,1.10
2022-12-08T05:13:40.852Z,1.10
2022-12-08T05:16:10.386Z,1.00
2022-12-08T05:18:38.090Z,1.00
2022-12-08T05:21:07.189Z,1.00
2022-12-08T05:23:34.721Z,1.00
2022-12-08T05:26:01.719Z,1.00
2022-12-08T05:28:44.319Z,1.00
2022-12-08T05:31:11.598Z,1.00
2022-12-08T05:33:38.726Z,0.90
2022-12-08T05:36:07.462Z,0.90
2022-12-08T05:38:34.434Z,0.90
2022-12-08T05:41:01.172Z,0.90
2022-12-08T05:43:27.875Z,0.90
2022-12-08T05:45:54.840Z,0.90
2022-12-08T05:48:21.557Z,0.90
2022-12-08T05:50:51.081Z,0.90
2022-12-08T05:53:20.099Z,0.90
2022-12-08T05:55:47.094Z,0.90
2022-12-08T05:58:15.883Z,1.00
2022-12-08T06:00:42.995Z,1.00
2022-12-08T06:03:11.350Z,1.00
2022-12-08T06:05:38.113Z,1.00
2022-12-08T06:08:05.288Z,1.10
2022-12-08T06:10:33.341Z,1.10
2022-12-08T06:13:00.093Z,1.20
2022-12-08T06:15:27.165Z,1.20
2022-12-08T06:17:53.915Z,1.20
2022-12-08T06:20:20.704Z,1.10
2022-12-08T06:22:47.512Z,1.00
2022-12-08T06:25:14.265Z,1.00
2022-12-08T06:27:42.421Z,0.90
2022-12-08T06:30:09.560Z,0.90
2022-12-08T06:32:37.243Z,0.90
2022-12-08T06:35:04.367Z,0.90
2022-12-08T06:37:31.161Z,1.00
2022-12-08T06:39:58.044Z,0.90
2022-12-08T06:42:24.796Z,0.90
2022-12-08T06:44:52.873Z,0.90
2022-12-08T06:47:26.077Z,1.00
2022-12-08T06:49:53.123Z,0.90
2022-12-08T06:52:19.836Z,0.90
2022-12-08T06:54:46.507Z,0.90
2022-12-08T06:57:13.215Z,0.90
2022-12-08T06:59:40.057Z,0.90
2022-12-08T07:02:09.315Z,0.90
2022-12-08T07:04:36.121Z,0.90
2022-12-08T07:07:02.943Z,0.90
2022-12-08T07:09:29.656Z,0.90
2022-12-08T07:11:56.351Z,0.90
2022-12-08T07:14:23.080Z,0.90
2022-12-08T07:16:50.003Z,0.90
2022-12-08T07:19:18.348Z,0.90
2022-12-08T07:21:45.262Z,0.90
2022-12-08T07:24:12.243Z,0.90
2022-12-08T07:26:38.978Z,0.90
2022-12-08T07:29:05.669Z,0.90
2022-12-08T07:31:32.422Z,0.60
2022-12-08T07:33:59.152Z,0.60
2022-12-08T07:36:27.194Z,0.60
2022-12-08T07:38:54.300Z,0.50
2022-12-08T07:41:23.663Z,0.60
2022-12-08T07:43:50.707Z,0.50
2022-12-08T07:46:19.396Z,0.60
2022-12-08T07:48:46.518Z,0.60
2022-12-08T07:51:14.988Z,0.60
2022-12-08T07:53:48.393Z,0.60
2022-12-08T07:56:18.488Z,0.60
2022-12-08T07:58:45.256Z,0.50
2022-12-08T08:01:20.249Z,0.40
2022-12-08T08:03:47.139Z,0.50
2022-12-08T08:06:13.898Z,0.50
2022-12-08T08:08:40.612Z,0.40
2022-12-08T08:11:18.944Z,0.40
2022-12-08T08:13:47.898Z,0.40
2022-12-08T08:16:14.702Z,0.40
2022-12-08T08:18:41.650Z,0.40
2022-12-08T08:21:43.059Z,0.40
2022-12-08T08:23:55.082Z,0.40
2022-12-08T08:26:23.136Z,0.30
2022-12-08T08:28:49.888Z,0.40
2022-12-08T08:31:16.687Z,0.40
2022-12-08T08:33:43.425Z,0.40
2022-12-08T08:36:10.690Z,0.40
2022-12-08T08:38:37.852Z,0.40
2022-12-08T08:41:07.845Z,0.40
2022-12-08T08:43:38.303Z,0.40
2022-12-08T08:46:06.767Z,0.50
2022-12-08T08:48:33.529Z,0.50
2022-12-08T08:51:08.018Z,0.50
2022-12-08T08:53:34.824Z,0.50
2022-12-08T08:56:02.847Z,0.60
2022-12-08T08:58:29.843Z,0.50
2022-12-08T09:00:57.907Z,0.50
2022-12-08T09:03:24.615Z,0.50
2022-12-08T09:05:51.436Z,0.50
2022-12-08T09:08:18.615Z,0.60
2022-12-08T09:10:45.447Z,0.60
2022-12-08T09:13:12.279Z,0.60
2022-12-08T09:15:39.296Z,0.60
2022-12-08T09:18:07.554Z,0.70
2022-12-08T09:20:35.063Z,0.70
2022-12-08T09:23:02.041Z,0.70
2022-12-08T09:25:28.937Z,0.70
2022-12-08T09:27:55.629Z,0.80
2022-12-08T09:30:22.477Z,0.90
2022-12-08T09:32:49.234Z,0.90
2022-12-08T09:35:17.623Z,1.00
2022-12-08T09:37:44.430Z,1.00
2022-12-08T09:40:15.138Z,1.00
2022-12-08T09:42:47.545Z,1.20
2022-12-08T09:45:16.191Z,1.20
2022-12-08T09:47:45.666Z,1.30
2022-12-08T09:50:17.784Z,1.20
2022-12-08T09:52:52.683Z,1.30
2022-12-08T09:55:24.292Z,1.30
2022-12-08T09:58:00.592Z,1.30
2022-12-08T10:00:27.495Z,1.20
2022-12-08T10:02:55.942Z,1.30
2022-12-08T10:05:24.337Z,1.20
2022-12-08T10:08:02.985Z,1.30
2022-12-08T10:10:37.056Z,1.30
2022-12-08T10:13:08.267Z,1.30
2022-12-08T10:15:46.931Z,1.20
2022-12-08T10:18:16.893Z,1.40
2022-12-08T10:20:46.083Z,1.30
2022-12-08T10:23:24.456Z,1.30
2022-12-08T10:25:55.394Z,1.40
2022-12-08T10:28:22.185Z,1.30
2022-12-08T10:30:48.930Z,1.20
2022-12-08T10:33:17.892Z,1.30
2022-12-08T10:35:46.932Z,1.40
2022-12-08T10:38:18.934Z,1.20
2022-12-08T10:40:47.699Z,1.20
2022-12-08T10:43:17.374Z,1.30
2022-12-08T10:45:44.493Z,1.30
2022-12-08T10:48:16.955Z,1.30
2022-12-08T10:50:45.270Z,1.40
2022-12-08T10:53:14.543Z,1.40
2022-12-08T10:55:44.685Z,1.40
2022-12-08T10:58:29.999Z,1.30
2022-12-08T11:00:59.370Z,1.40
2022-12-08T11:03:29.761Z,1.40
2022-12-08T11:05:58.964Z,1.40
2022-12-08T11:08:27.005Z,1.50
2022-12-08T11:10:55.392Z,1.50
2022-12-08T11:13:24.055Z,1.70
2022-12-08T11:15:51.733Z,1.70
2022-12-08T11:18:25.210Z,1.70
2022-12-08T11:20:58.391Z,1.50
2022-12-08T11:23:26.769Z,1.60
2022-12-08T11:25:58.629Z,1.80
2022-12-08T11:28:26.012Z,1.70
2022-12-08T11:30:57.601Z,1.70
2022-12-08T11:33:26.063Z,1.70
2022-12-08T11:35:57.630Z,1.70
2022-12-08T11:38:26.416Z,1.60
2022-12-08T11:40:57.010Z,1.70
2022-12-08T11:43:31.030Z,1.70
2022-12-08T11:46:02.331Z,1.60
2022-12-08T11:48:36.110Z,1.60
2022-12-08T11:51:12.278Z,1.60
2022-12-08T11:53:46.713Z,1.50
2022-12-08T11:56:21.665Z,1.60
2022-12-08T11:58:53.392Z,1.60
2022-12-08T12:01:22.292Z,1.60
2022-12-08T12:03:58.764Z,1.60
2022-12-08T12:06:57.843Z,1.60
2022-12-08T12:09:40.142Z,1.70
2022-12-08T12:12:22.820Z,1.60
2022-12-08T12:15:20.822Z,1.80
2022-12-08T12:17:51.233Z,1.90
2022-12-08T12:20:24.420Z,1.70
2022-12-08T12:22:56.453Z,1.70
2022-12-08T12:25:26.148Z,1.80
2022-12-08T12:28:00.474Z,1.70
2022-12-08T12:30:48.336Z,1.60
2022-12-08T12:33:17.057Z,1.50
2022-12-08T12:35:47.002Z,1.70
2022-12-08T12:38:21.483Z,1.70
2022-12-08T12:40:49.009Z,1.70
2022-12-08T12:43:30.939Z,1.70
2022-12-08T12:46:53.528Z,1.70
2022-12-08T12:49:49.813Z,1.60
2022-12-08T12:52:44.645Z,1.50
2022-12-08T12:55:55.156Z,1.60
2022-12-08T12:58:38.123Z,1.60
2022-12-08T13:01:36.722Z,1.50
2022-12-08T13:04:06.926Z,1.40
2022-12-08T13:06:37.777Z,1.30
2022-12-08T13:09:07.470Z,1.20
2022-12-08T13:11:51.010Z,1.20
2022-12-08T13:14:37.706Z,1.20
2022-12-08T13:17:10.273Z,1.10
2022-12-08T13:19:40.824Z,1.10
2022-12-08T13:22:44.766Z,1.10
2022-12-08T13:25:46.976Z,1.10
2022-12-08T13:28:22.850Z,1.20
2022-12-08T13:30:52.507Z,1.20
2022-12-08T13:33:24.523Z,1.20
2022-12-08T13:36:00.166Z,1.20
2022-12-08T13:38:34.810Z,1.20
2022-12-08T13:41:06.149Z,1.20
2022-12-08T13:43:55.636Z,1.10
2022-12-08T13:58:02.796Z,1.10
2022-12-08T14:00:29.909Z,1.20
2022-12-08T14:03:00.353Z,1.20
2022-12-08T14:06:10.396Z,1.20
2022-12-08T14:08:58.915Z,1.10
2022-12-08T14:11:25.555Z,1.10
2022-12-08T14:13:52.299Z,1.20
2022-12-08T14:16:28.396Z,1.20
2022-12-08T14:19:06.104Z,1.10
2022-12-08T14:21:36.222Z,1.10
2022-12-08T14:24:03.367Z,1.10
2022-12-08T14:26:35.196Z,1.00
2022-12-08T14:29:02.984Z,1.00
2022-12-08T14:31:35.934Z,1.00
2022-12-08T14:34:04.336Z,0.90
2022-12-08T14:36:34.310Z,0.80
2022-12-08T14:39:01.054Z,0.70
2022-12-08T14:41:32.452Z,0.60
2022-12-08T14:44:19.104Z,0.50
2022-12-08T14:47:05.874Z,0.60
2022-12-08T14:49:36.341Z,0.50
2022-12-08T14:52:08.645Z,0.40
2022-12-08T14:54:39.927Z,0.20
2022-12-08T14:57:07.180Z,0.20
2022-12-08T14:59:39.083Z,0.10
2022-12-08T15:02:23.244Z,0.10
2022-12-08T15:05:00.273Z,-0.10
2022-12-08T15:07:30.062Z,0.00
2022-12-08T15:10:19.446Z,0.00
2022-12-08T15:13:01.357Z,-0.30
2022-12-08T15:15:29.454Z,-0.30
2022-12-08T15:18:04.411Z,-0.30
2022-12-08T15:20:40.817Z,-0.20
2022-12-08T15:23:24.561Z,-0.30
2022-12-08T15:25:51.660Z,-0.40
2022-12-08T15:28:28.153Z,-0.30
2022-12-08T15:30:57.419Z,-0.30
2022-12-08T15:33:27.333Z,-0.40
2022-12-08T15:36:00.758Z,-0.30
2022-12-08T15:38:34.223Z,-0.20
2022-12-08T15:41:01.017Z,-0.30
2022-12-08T15:43:28.267Z,-0.20
2022-12-08T15:46:04.996Z,-0.10
2022-12-08T15:48:31.776Z,0.10
2022-12-08T15:51:05.797Z,0.20
2022-12-08T15:53:32.724Z,0.10
2022-12-08T15:58:56.476Z,-0.10
2022-12-08T16:01:26.246Z,0.10
2022-12-08T16:09:33.782Z,-0.20
2022-12-08T16:12:09.911Z,-0.40
2022-12-08T16:17:28.665Z,-0.50
2022-12-08T16:19:59.212Z,-0.60
2022-12-08T16:22:52.809Z,-0.50
2022-12-08T16:25:19.824Z,-0.50
2022-12-08T16:28:23.612Z,-0.60
2022-12-08T16:30:37.727Z,-0.70
2022-12-08T16:33:04.754Z,-0.70
2022-12-08T16:35:31.568Z,-0.60
2022-12-08T16:37:59.758Z,-0.60
2022-12-08T16:40:26.531Z,-0.60
2022-12-08T16:42:53.281Z,-0.60
2022-12-08T16:45:28.388Z,-0.50
2022-12-08T16:47:56.877Z,-0.40
2022-12-08T16:50:25.820Z,-0.40
2022-12-08T16:52:57.049Z,-0.30
2022-12-08T16:55:25.445Z,-0.20
2022-12-08T16:57:52.781Z,-0.20
2022-12-08T17:00:21.451Z,-0.10
2022-12-08T17:02:49.419Z,-0.10
2022-12-08T17:05:20.844Z,-0.10
2022-12-08T17:07:49.709Z,0.00
2022-12-08T17:10:21.540Z,0.10
2022-12-08T17:12:51.840Z,0.10
2022-12-08T17:15:23.693Z,0.20
2022-12-08T17:17:51.040Z,0.20
2022-12-08T17:20:20.245Z,0.20
2022-12-08T17:22:50.242Z,0.30
2022-12-08T17:25:19.649Z,0.30
2022-12-08T17:27:48.807Z,0.30
2022-12-08T17:30:19.860Z,0.30
2022-12-08T17:32:46.639Z,0.30
2022-12-08T17:35:13.754Z,0.20
2022-12-08T17:37:43.482Z,0.30
2022-12-08T17:40:12.045Z,0.30
2022-12-08T17:42:45.127Z,0.30
2022-12-08T17:45:13.176Z,0.30
2022-12-08T17:47:40.985Z,0.40
2022-12-08T17:50:10.959Z,0.40
2022-12-08T17:52:41.574Z,0.40
2022-12-08T17:55:09.540Z,0.50
2022-12-08T17:57:36.356Z,0.50
2022-12-08T18:00:04.746Z,0.50
2022-12-08T18:02:33.360Z,0.60
2022-12-08T18:05:00.571Z,0.60
2022-12-08T18:07:30.604Z,0.60
2022-12-08T18:09:59.789Z,0.60
2022-12-08T18:12:26.544Z,0.60
2022-12-08T18:14:53.380Z,0.60
2022-12-08T18:17:20.339Z,0.60
2022-12-08T18:19:48.486Z,0.60
2022-12-08T18:22:15.863Z,0.60
2022-12-08T18:24:43.085Z,0.60
2022-12-08T18:27:09.892Z,0.50
2022-12-08T18:29:39.501Z,0.60
2022-12-08T18:32:06.366Z,0.50
2022-12-08T18:34:33.645Z,0.60
2022-12-08T18:37:04.503Z,0.50
2022-12-08T18:39:33.141Z,0.50
2022-12-08T18:42:00.774Z,0.40
2022-12-08T18:44:30.382Z,0.40
2022-12-08T18:46:58.345Z,0.30
2022-12-08T18:49:25.117Z,0.40
2022-12-08T18:51:52.001Z,0.30
2022-12-08T18:54:37.115Z,0.10
2022-12-08T18:57:11.807Z,0.20
2022-12-08T18:59:38.497Z,0.10
2022-12-08T19:02:05.210Z,-0.10
2022-12-08T19:04:37.223Z,-0.20
2022-12-08T19:07:07.501Z,-0.20
2022-12-08T19:09:38.050Z,-0.30
2022-12-08T19:12:12.850Z,-0.40
2022-12-08T19:14:40.281Z,-0.40
2022-12-08T19:17:07.280Z,-0.50
2022-12-08T19:19:37.731Z,-0.70
2022-12-08T19:22:04.812Z,-0.70
2022-12-08T19:24:31.580Z,-0.70
2022-12-08T19:26:59.666Z,-0.70
2022-12-08T19:29:26.533Z,-0.80
2022-12-08T19:31:53.373Z,-0.90
2022-12-08T19:34:20.941Z,-1.00
2022-12-08T19:36:47.888Z,-1.10
2022-12-08T19:39:16.437Z,-1.00
2022-12-08T19:41:43.179Z,-1.00
2022-12-08T19:44:17.580Z,-0.90
2022-12-08T19:46:44.469Z,-0.70
2022-12-08T19:49:11.350Z,-0.80
2022-12-08T19:51:38.249Z,-0.70
2022-12-08T19:54:05.459Z,-0.70
2022-12-08T19:56:32.242Z,-0.60
2022-12-08T19:58:58.979Z,-0.60
2022-12-08T20:01:29.669Z,-0.50
2022-12-08T20:03:56.487Z,-0.40
2022-12-08T20:06:25.102Z,-0.40
2022-12-08T20:08:59.073Z,-0.40
2022-12-08T20:11:25.778Z,-0.50
2022-12-08T20:13:52.485Z,-0.50
2022-12-08T20:16:19.362Z,-0.50
2022-12-08T20:18:52.616Z,-0.50
2022-12-08T20:21:21.386Z,-0.50
2022-12-08T20:23:48.596Z,-0.40
2022-12-08T20:26:16.279Z,-0.40
2022-12-08T20:28:43.483Z,-0.40
2022-12-08T20:31:22.230Z,-0.40
2022-12-08T20:33:50.483Z,-0.40
2022-12-08T20:36:20.592Z,-0.30
2022-12-08T20:38:48.941Z,-0.30
2022-12-08T20:41:16.250Z,-0.20
2022-12-08T20:43:43.496Z,-0.20
2022-12-08T20:46:12.157Z,-0.20
2022-12-08T20:48:39.240Z,-0.20
2022-12-08T20:51:11.712Z,-0.10
2022-12-08T20:53:38.564Z,-0.10
2022-12-08T20:56:05.775Z,-0.10
2022-12-08T20:58:34.136Z,-0.10
2022-12-08T21:01:01.200Z,-0.10
2022-12-08T21:03:31.061Z,-0.10
2022-12-08T21:05:57.968Z,-0.10
2022-12-08T21:08:29.044Z,-0.10
2022-12-08T21:10:56.751Z,0.00
2022-12-08T21:13:23.632Z,0.00
2022-12-08T21:15:50.487Z,0.00
2022-12-08T21:18:17.598Z,0.00
2022-12-08T21:20:44.523Z,0.00
2022-12-08T21:23:12.033Z,0.00
2022-12-08T21:25:42.321Z,0.00
2022-12-08T21:28:09.304Z,0.10
2022-12-08T21:30:45.936Z,0.10
2022-12-08T21:33:12.940Z,0.10
2022-12-08T21:35:42.457Z,0.10
2022-12-08T21:38:09.684Z,0.10
2022-12-08T21:40:39.378Z,0.10
2022-12-08T21:43:10.100Z,0.10
2022-12-08T21:45:36.871Z,0.20
2022-12-08T21:48:10.285Z,0.20
2022-12-08T21:50:38.621Z,0.20
2022-12-08T21:53:05.565Z,0.20
2022-12-08T21:55:32.314Z,0.20
2022-12-08T21:58:01.215Z,0.20
2022-12-08T22:00:29.786Z,0.30
2022-12-08T22:02:56.936Z,0.20
2022-12-08T22:05:23.770Z,0.20
2022-12-08T22:07:56.544Z,0.20
2022-12-08T22:10:23.484Z,0.20
2022-12-08T22:12:50.435Z,0.20
2022-12-08T22:15:22.117Z,0.30
2022-12-08T22:17:53.390Z,0.20
2022-12-08T22:20:20.398Z,0.20
2022-12-08T22:22:48.491Z,0.20
2022-12-08T22:25:15.385Z,0.20
2022-12-08T22:27:43.625Z,0.10
2022-12-08T22:30:13.923Z,0.10
2022-12-08T22:32:40.881Z,0.20
2022-12-08T22:35:09.784Z,0.10
2022-12-08T22:37:37.741Z,0.10
2022-12-08T22:40:07.501Z,0.10
2022-12-08T22:42:34.648Z,0.10
2022-12-08T22:45:02.341Z,0.10
2022-12-08T22:47:32.101Z,0.10
2022-12-08T22:49:58.839Z,0.10
2022-12-08T22:52:26.984Z,0.10
2022-12-08T22:54:55.939Z,0.10
2022-12-08T22:57:22.978Z,0.10
2022-12-08T22:59:49.692Z,0.10
2022-12-08T23:02:16.428Z,0.10
2022-12-08T23:04:43.442Z,0.10
2022-12-08T23:07:10.310Z,0.10
2022-12-08T23:09:38.511Z,0.20
2022-12-08T23:12:07.766Z,0.20
2022-12-08T23:14:37.894Z,0.20
2022-12-08T23:17:08.113Z,0.20
2022-12-08T23:19:35.853Z,0.20
2022-12-08T23:22:02.767Z,0.20
2022-12-08T23:24:29.662Z,0.20
2022-12-08T23:26:57.754Z,0.20
2022-12-08T23:29:26.358Z,0.20
2022-12-08T23:31:55.492Z,0.20
2022-12-08T23:34:25.356Z,0.30
2022-12-08T23:36:52.127Z,0.30
2022-12-08T23:39:19.023Z,0.30
2022-12-08T23:41:45.817Z,0.30
2022-12-08T23:44:17.414Z,0.30
2022-12-08T23:46:44.400Z,0.30
2022-12-08T23:49:12.410Z,0.30
2022-12-08T23:51:39.193Z,0.30
2022-12-08T23:54:06.607Z,0.30
2022-12-08T23:56:34.961Z,0.30
2022-12-08T23:59:08.082Z,0.30
